AirNav   Phillips 66 Aviation Fuel
 
 1057 users online  

H76 Pawhuska Municipal Airport
Pawhuska, Oklahoma, USA

GOING TO PAWHUSKA?


FAA INFORMATION EFFECTIVE 21 JUNE 2018

Location

FAA Identifier: H76
Lat/Long: 36-40-18.2140N / 096-24-20.0490W
36-40.303567N / 096-24.334150W
36.6717261 / -96.4055692
(estimated)
Elevation: 1000 ft. / 304.8 m (surveyed)
Variation: 06E (1985)
From city: 4 miles W of PAWHUSKA, OK
Time zone: UTC -5 (UTC -6 during Standard Time)
Zip code: 74056

Airport Operations

Airport use: Open to the public
Activation date: 09/1945
Control tower: no
ARTCC: KANSAS CITY CENTER
FSS: MC ALESTER FLIGHT SERVICE STATION
NOTAMs facility: MLC (NOTAM-D service available)
Attendance: UNATNDD
Wind indicator: yes
Segmented circle: yes
Lights: MIRL RY 17/35 PRESET LOW INTST SS-SR; TO INCR INTST ACTVT- CTAF.
Beacon: white-green (lighted land airport)
Operates sunset to sunrise.

Airport Communications

CTAF: 122.9
WX ASOS at BVO (20 nm E): 132.675 (918-336-2070)

Nearby radio navigation aids

VOR radial/distance  VOR name  Freq  Var
BVOr234/21.0BARTLESVILLE VOR/DME117.9008E
PERr091/36.6PIONEER VORTAC113.2006E

 
NDB name  Hdg/Dist  Freq  Var  ID
WILLIAM POGUE332/32.336206EOWP --- .-- .--.

Airport Services

Parking: tiedowns
Airframe service: NONE
Powerplant service: NONE
Bottled oxygen: NONE
Bulk oxygen: NONE

Runway Information

Runway 17/35

Dimensions: 3200 x 60 ft. / 975 x 18 m
Surface: asphalt, in fair condition
Weight bearing capacity: 
Single wheel: 12.5
Runway edge lights: medium intensity
RUNWAY 17  RUNWAY 35
Traffic pattern: leftleft
Markings: basic, in good conditionbasic, in good condition

Airport Ownership and Management from official FAA records

Ownership: Publicly-owned
Owner: CITY OF PAWHUSKA
118 W. MAIN ST., PO BOX 539
PAWHUSKA, OK 74056
Phone (918) 287-3040
Manager: MIKE MCCARTNEY
CITY HALL PO BOX 539
PAWHUSKA, OK 74056
Phone 918-287-3040
CITY MANAGER.

Airport Operational Statistics

Aircraft based on the field: 6
Single engine airplanes: 5
Ultralights: 1
    
Aircraft operations: avg 30/week *
52% transient general aviation
48% local general aviation
* for 12-month period ending 25 October 2016

Instrument Procedures

There are no published instrument procedures at H76.

Some nearby airports with instrument procedures:

KBVO - Bartlesville Municipal Airport (20 nm E)
KOWP - William R Pogue Municipal Airport (32 nm S)
KPNC - Ponca City Regional Airport (34 nm W)
KTUL - Tulsa International Airport (38 nm SE)
KIDP - Independence Municipal Airport (42 nm NE)
 
Loc | Ops | Rwys | IFR | FBO | Links
Com | Nav | Svcs | Stats | Notes

AirNav Hotels Sweepstakes
 
Area around H76 (Pawhuska Municipal Airport)
 
Road maps at: MapQuest Bing Google
 
Aerial photo
WARNING: Photo may not be current or correct
Aerial photo of H76 (Pawhuska Municipal Airport)
Photo taken 19-Aug-2012
looking northwest.

Do you have a better or more recent aerial photo of Pawhuska Municipal Airport that you would like to share? If so, please send us your photo.

 
Sectional chart

 
Airport distance calculator
Flying to Pawhuska Municipal Airport? Find the distance to fly.

From to H76

Sunrise and sunset
Times for 23-Jun-2018
 Local
(UTC-5)
 Zulu
(UTC)
Morning civil twilight05:3810:38
Sunrise06:0911:09
Sunset20:4701:47
Evening civil twilight21:1802:18

Current date and time
Zulu (UTC)  23-Jun-2018 18:28:05
Local (UTC-5)  23-Jun-2018 13:28:05
 
METAR
KBVO 
20nm E 
231702Z AUTO 20007KT 10SM SCT023 27/21 A2985 RMK AO2 T02670206
KOWP 
32nm S 
231815Z AUTO 25005KT 10SM CLR 28/21 A2986 RMK AO2 T02760205
KPNC 
34nm W 
231803Z AUTO VRB03KT 10SM SCT029 26/18 A2986 RMK AO2 T02610178
KTUL 
38nm SE 
231753Z 28011KT 10SM FEW040 SCT100 SCT250 28/21 A2983 RMK AO2 SLP091 60000 T02830206 10283 20200 50000
TAF
KBVO 
20nm E 
231720Z 2318/2418 21006KT P6SM SCT025 BKN250 FM240000 VRB03KT P6SM BKN250 FM241400 18008KT P6SM BKN250
NOTAMs
Click for the latest NOTAMs
NOTAMs are issued by the DoD/FAA and will open in a separate window not controlled by AirNav.

 

 
 

Would you like to see your business listed on this page?

 If your business provides an interesting product or service to pilots, flight crews, aircraft, or users of the Pawhuska Municipal Airport, you should consider listing it here.  To start the listing process, click on the button below
 
Add a business
 

Other Pages about Pawhuska Municipal Airport

Update a link
 
Copyright © AirNav, LLC. All rights reserved. Privacy Policy  Contact